Time;durP1;ratioP1;P1;durP2;ratioP2;P2;SDS_P1;SDS_P2;PMS_P1;PMS_P2;Temp;Humidity;BMP_temperature;BMP_pressure;BME280_temperature;BME280_humidity;BME280_pressure;Samples;Min_cycle;Max_cycle;Signal;HPM_P1;HPM_P2
2021/05/08 00:00:00;;;;;;;5.30;3.00;;;;;;;;;;5011556;28;20474;-79
2021/05/08 00:02:28;;;;;;;10.33;2.87;;;;;;;;;;5019970;28;20475;-79
2021/05/08 00:04:55;;;;;;;8.63;2.73;;;;;;;;;;4998270;28;20449;-79
2021/05/08 00:07:22;;;;;;;7.50;2.60;;;;;;;;;;5001090;28;20977;-79
2021/05/08 00:09:48;;;;;;;8.63;3.50;;;;;;;;;;5022345;28;20441;-79
2021/05/08 00:12:17;;;;;;;9.70;3.30;;;;;;;;;;5005993;28;20483;-79
2021/05/08 00:14:43;;;;;;;8.23;3.20;;;;;;;;;;5013928;28;20496;-79
2021/05/08 00:17:10;;;;;;;7.20;2.70;;;;;;;;;;4982966;28;20472;-79
2021/05/08 00:19:36;;;;;;;8.60;2.70;;;;;;;;;;5001336;28;20436;-79
2021/05/08 00:22:02;;;;;;;9.57;2.90;;;;;;;;;;5009289;28;20563;-79
2021/05/08 00:24:28;;;;;;;14.23;3.53;;;;;;;;;;4994962;28;20444;-79
2021/05/08 00:26:54;;;;;;;7.10;2.67;;;;;;;;;;4994292;28;20440;-79
2021/05/08 00:29:20;;;;;;;16.50;3.53;;;;;;;;;;4990624;28;21078;-79
2021/05/08 00:31:46;;;;;;;9.80;2.90;;;;;;;;;;5010074;28;20476;-79
2021/05/08 00:34:13;;;;;;;10.13;3.30;;;;;;;;;;4999348;28;20503;-80
2021/05/08 00:36:39;;;;;;;10.37;3.10;;;;;;;;;;5016019;28;20526;-79
2021/05/08 00:39:06;;;;;;;9.80;2.90;;;;;;;;;;4993446;28;20459;-79
2021/05/08 00:41:32;;;;;;;13.00;3.53;;;;;;;;;;5029413;28;20456;-80
2021/05/08 00:43:58;;;;;;;10.37;3.87;;;;;;;;;;4992421;28;20452;-79
2021/05/08 00:46:24;;;;;;;13.53;4.03;;;;;;;;;;5008666;28;20455;-79
2021/05/08 00:48:51;;;;;;;11.50;3.77;;;;;;;;;;4977937;28;20454;-79
2021/05/08 00:51:18;;;;;;;12.00;3.90;;;;;;;;;;4975684;28;21697;-78
2021/05/08 00:53:44;;;;;;;9.47;3.60;;;;;;;;;;5006782;28;20415;-79
2021/05/08 00:56:10;;;;;;;19.37;4.27;;;;;;;;;;5002526;28;20457;-79
2021/05/08 00:58:37;;;;;;;6.30;3.03;;;;;;;;;;5007130;28;20535;-79
2021/05/08 01:01:04;;;;;;;7.33;3.47;;;;;;;;;;5032817;28;20466;-80
2021/05/08 01:03:31;;;;;;;10.30;3.70;;;;;;;;;;5023929;28;20483;-80
2021/05/08 01:05:58;;;;;;;10.23;4.07;;;;;;;;;;5012493;28;20454;-79
2021/05/08 01:08:25;;;;;;;8.20;3.50;;;;;;;;;;5008994;28;20737;-80
2021/05/08 01:10:52;;;;;;;12.17;3.87;;;;;;;;;;5028676;28;20543;-80
2021/05/08 01:13:19;;;;;;;8.40;4.10;;;;;;;;;;5008615;28;20441;-80
2021/05/08 01:15:45;;;;;;;7.93;3.77;;;;;;;;;;5029534;28;20451;-80
2021/05/08 01:18:12;;;;;;;12.83;3.80;;;;;;;;;;5028828;28;20468;-80
2021/05/08 01:20:38;;;;;;;9.07;4.07;;;;;;;;;;5015990;28;20446;-80
2021/05/08 01:23:05;;;;;;;10.10;4.87;;;;;;;;;;5014860;28;20463;-79
2021/05/08 01:25:31;;;;;;;10.10;4.83;;;;;;;;;;5028197;28;20442;-80
2021/05/08 01:27:58;;;;;;;14.83;4.70;;;;;;;;;;5015023;28;20440;-80
2021/05/08 01:30:29;;;;;;;12.87;4.13;;;;;;;;;;4999988;28;20455;-80
2021/05/08 01:32:55;;;;;;;9.57;4.63;;;;;;;;;;5003930;28;20468;-80
2021/05/08 01:35:22;;;;;;;12.60;4.20;;;;;;;;;;4992591;28;20580;-79
2021/05/08 01:37:48;;;;;;;5.63;4.47;;;;;;;;;;5008678;28;20440;-79
2021/05/08 01:40:15;;;;;;;9.73;3.90;;;;;;;;;;5010505;28;20468;-79
2021/05/08 01:42:43;;;;;;;9.47;4.60;;;;;;;;;;4995053;28;20472;-80
2021/05/08 01:45:13;;;;;;;9.77;4.03;;;;;;;;;;5003674;28;20440;-79
2021/05/08 01:47:40;;;;;;;18.40;4.33;;;;;;;;;;5016495;28;20479;-79
2021/05/08 01:50:08;;;;;;;11.17;4.43;;;;;;;;;;5014180;28;20441;-81
2021/05/08 01:52:35;;;;;;;10.63;4.63;;;;;;;;;;5019448;28;20523;-80
2021/05/08 01:55:04;;;;;;;8.93;4.57;;;;;;;;;;5011827;28;20496;-80
2021/05/08 01:57:31;;;;;;;11.50;5.20;;;;;;;;;;5020571;28;20448;-80
2021/05/08 01:59:57;;;;;;;9.40;4.43;;;;;;;;;;5031970;28;20499;-79
2021/05/08 02:02:23;;;;;;;6.77;4.17;;;;;;;;;;5025381;28;20483;-79
2021/05/08 02:04:50;;;;;;;9.80;5.03;;;;;;;;;;5032500;28;20431;-79
2021/05/08 02:07:16;;;;;;;10.00;5.03;;;;;;;;;;5031042;28;20431;-79
2021/05/08 02:09:44;;;;;;;11.80;4.90;;;;;;;;;;5029305;28;20443;-79
2021/05/08 02:12:10;;;;;;;13.00;4.90;;;;;;;;;;5025262;28;20703;-79
2021/05/08 02:14:36;;;;;;;9.27;4.17;;;;;;;;;;5001839;28;20841;-79
2021/05/08 02:17:03;;;;;;;14.53;4.30;;;;;;;;;;4994812;28;20445;-79
2021/05/08 02:19:29;;;;;;;10.80;3.87;;;;;;;;;;4987714;28;20559;-79
2021/05/08 02:21:57;;;;;;;16.63;4.60;;;;;;;;;;5004484;28;20464;-78
2021/05/08 02:24:23;;;;;;;8.50;4.40;;;;;;;;;;4989461;28;20472;-79
2021/05/08 02:26:49;;;;;;;8.97;4.37;;;;;;;;;;4991548;28;20447;-79
2021/05/08 02:29:15;;;;;;;13.07;4.93;;;;;;;;;;5010290;28;20546;-79
2021/05/08 02:31:41;;;;;;;13.73;5.20;;;;;;;;;;4992507;28;20507;-79
2021/05/08 02:34:07;;;;;;;5.87;3.93;;;;;;;;;;5015310;28;20441;-80
2021/05/08 02:36:33;;;;;;;10.30;4.80;;;;;;;;;;4996941;28;20468;-79
2021/05/08 02:38:59;;;;;;;18.63;4.37;;;;;;;;;;5013268;28;20446;-79
2021/05/08 02:41:25;;;;;;;8.30;4.30;;;;;;;;;;5018184;28;20455;-79
2021/05/08 02:43:51;;;;;;;8.83;4.90;;;;;;;;;;5010090;28;20442;-79
2021/05/08 02:46:17;;;;;;;9.50;5.17;;;;;;;;;;5011001;28;20503;-79
2021/05/08 02:48:43;;;;;;;10.20;4.43;;;;;;;;;;5014655;28;20433;-79
2021/05/08 02:51:09;;;;;;;7.43;3.90;;;;;;;;;;4995932;28;20466;-79
2021/05/08 02:53:35;;;;;;;6.77;4.00;;;;;;;;;;4997749;28;20467;-79
2021/05/08 02:56:01;;;;;;;8.00;4.93;;;;;;;;;;5004509;28;20452;-79
2021/05/08 02:58:28;;;;;;;8.57;5.03;;;;;;;;;;5002535;28;20447;-79
2021/05/08 03:00:54;;;;;;;6.90;4.50;;;;;;;;;;4984959;28;20537;-79
2021/05/08 03:03:20;;;;;;;8.87;4.60;;;;;;;;;;5000336;28;20440;-79
2021/05/08 03:05:46;;;;;;;6.90;4.20;;;;;;;;;;5007979;28;20573;-80
2021/05/08 03:08:12;;;;;;;9.40;4.80;;;;;;;;;;4986280;28;20974;-80
2021/05/08 03:10:38;;;;;;;10.67;4.53;;;;;;;;;;4993938;28;21275;-77
2021/05/08 03:13:04;;;;;;;9.80;4.50;;;;;;;;;;4992108;28;20467;-77
2021/05/08 03:15:30;;;;;;;9.17;4.27;;;;;;;;;;4983878;28;20443;-77
2021/05/08 03:17:56;;;;;;;7.20;4.17;;;;;;;;;;4985087;28;20429;-78
2021/05/08 03:20:22;;;;;;;7.60;4.30;;;;;;;;;;4979190;28;20437;-77
2021/05/08 03:22:51;;;;;;;9.83;4.73;;;;;;;;;;4992200;28;20451;-78
2021/05/08 03:25:17;;;;;;;7.33;4.63;;;;;;;;;;4994106;28;20532;-78
2021/05/08 03:27:43;;;;;;;6.60;4.40;;;;;;;;;;4997322;28;20436;-79
2021/05/08 03:30:10;;;;;;;9.97;4.57;;;;;;;;;;5000794;28;20447;-78
2021/05/08 03:32:36;;;;;;;9.30;4.30;;;;;;;;;;4994080;28;20491;-78
2021/05/08 03:35:02;;;;;;;9.40;4.53;;;;;;;;;;5004767;28;20436;-78
2021/05/08 03:37:28;;;;;;;7.73;4.20;;;;;;;;;;5001926;28;20451;-78
2021/05/08 03:39:54;;;;;;;13.90;4.43;;;;;;;;;;4999431;28;20460;-78
2021/05/08 03:42:20;;;;;;;8.47;4.20;;;;;;;;;;4995728;28;20452;-78
2021/05/08 03:44:46;;;;;;;8.10;3.43;;;;;;;;;;4997893;28;20506;-77
2021/05/08 03:47:12;;;;;;;10.63;4.47;;;;;;;;;;4994587;28;20425;-78
2021/05/08 03:49:39;;;;;;;6.60;4.40;;;;;;;;;;5003045;28;20436;-77
2021/05/08 03:52:05;;;;;;;5.80;3.80;;;;;;;;;;5017010;28;20495;-78
2021/05/08 03:54:31;;;;;;;12.37;4.30;;;;;;;;;;4990645;28;20527;-77
2021/05/08 03:56:59;;;;;;;9.10;4.77;;;;;;;;;;4991714;28;20466;-78
2021/05/08 03:59:25;;;;;;;8.53;4.20;;;;;;;;;;5007670;28;20501;-77
2021/05/08 04:01:51;;;;;;;8.63;4.27;;;;;;;;;;5011512;28;20468;-77
2021/05/08 04:04:17;;;;;;;8.27;4.20;;;;;;;;;;5012727;28;20435;-77
2021/05/08 04:06:43;;;;;;;14.03;4.67;;;;;;;;;;5006244;28;20446;-78
2021/05/08 04:09:10;;;;;;;5.60;3.73;;;;;;;;;;4993148;28;20566;-78
2021/05/08 04:11:37;;;;;;;11.63;3.83;;;;;;;;;;5016568;28;20471;-78
2021/05/08 04:14:04;;;;;;;7.00;4.40;;;;;;;;;;5016609;28;20503;-79
2021/05/08 04:16:31;;;;;;;5.43;4.00;;;;;;;;;;5030060;28;20487;-78
2021/05/08 04:18:58;;;;;;;7.77;4.40;;;;;;;;;;5017699;28;20460;-78
2021/05/08 04:21:24;;;;;;;9.97;4.17;;;;;;;;;;5007837;28;20468;-77
2021/05/08 04:23:50;;;;;;;13.23;4.30;;;;;;;;;;5014594;28;20417;-78
2021/05/08 04:26:16;;;;;;;5.53;3.83;;;;;;;;;;5022515;28;20432;-78
2021/05/08 04:28:43;;;;;;;13.13;4.40;;;;;;;;;;5029592;28;20432;-78
2021/05/08 04:31:09;;;;;;;11.20;4.40;;;;;;;;;;5008455;28;20468;-77
2021/05/08 04:33:35;;;;;;;7.07;3.90;;;;;;;;;;5018873;28;20439;-77
2021/05/08 04:36:01;;;;;;;4.30;3.40;;;;;;;;;;5003232;28;20438;-78
2021/05/08 04:38:27;;;;;;;7.27;4.40;;;;;;;;;;4988750;28;20453;-75
2021/05/08 04:40:54;;;;;;;8.03;4.00;;;;;;;;;;4997399;28;20458;-77
2021/05/08 04:43:20;;;;;;;9.30;3.90;;;;;;;;;;4992471;28;20455;-77
2021/05/08 04:45:46;;;;;;;8.93;4.20;;;;;;;;;;5000177;28;20443;-78
2021/05/08 04:48:20;;;;;;;7.20;3.77;;;;;;;;;;5004347;28;20438;-78
2021/05/08 04:50:47;;;;;;;4.33;3.00;;;;;;;;;;4986817;28;20549;-78
2021/05/08 04:53:14;;;;;;;8.67;3.60;;;;;;;;;;5015746;28;20470;-77
2021/05/08 04:55:40;;;;;;;7.67;3.83;;;;;;;;;;5012808;28;20436;-77
2021/05/08 04:58:06;;;;;;;7.83;3.70;;;;;;;;;;4991071;28;20444;-76
2021/05/08 05:00:33;;;;;;;5.23;3.70;;;;;;;;;;5008994;28;20459;-77
2021/05/08 05:02:59;;;;;;;8.77;3.60;;;;;;;;;;5013444;28;20834;-77
2021/05/08 05:05:25;;;;;;;4.60;4.03;;;;;;;;;;4988903;28;20436;-77
2021/05/08 05:07:51;;;;;;;7.20;3.43;;;;;;;;;;5007885;28;20452;-77
2021/05/08 05:10:17;;;;;;;10.30;4.00;;;;;;;;;;4990625;28;20494;-77
2021/05/08 05:12:47;;;;;;;11.03;3.00;;;;;;;;;;4989732;28;20471;-77
2021/05/08 05:15:16;;;;;;;8.97;3.60;;;;;;;;;;5007772;28;20920;-77
2021/05/08 05:17:42;;;;;;;5.23;3.63;;;;;;;;;;5010251;28;20490;-76
2021/05/08 05:20:09;;;;;;;6.77;4.10;;;;;;;;;;5012968;28;20436;-77
2021/05/08 05:22:35;;;;;;;8.30;3.87;;;;;;;;;;5011434;28;20451;-77
2021/05/08 05:25:02;;;;;;;10.83;4.27;;;;;;;;;;5009672;28;20478;-77
2021/05/08 05:27:33;;;;;;;7.53;4.20;;;;;;;;;;4992826;28;20445;-78
2021/05/08 05:29:59;;;;;;;10.70;4.20;;;;;;;;;;5000757;28;20801;-78
2021/05/08 05:32:26;;;;;;;18.73;4.77;;;;;;;;;;5015571;28;20479;-77
2021/05/08 05:34:52;;;;;;;6.83;4.33;;;;;;;;;;5002008;28;20434;-77
2021/05/08 05:37:19;;;;;;;8.53;3.97;;;;;;;;;;5009943;28;20436;-78
2021/05/08 05:39:46;;;;;;;9.47;4.77;;;;;;;;;;5016367;28;20485;-79
2021/05/08 05:42:13;;;;;;;9.23;5.00;;;;;;;;;;5034902;28;20451;-80
2021/05/08 05:44:39;;;;;;;9.70;5.03;;;;;;;;;;5025832;28;20444;-79
2021/05/08 05:47:20;;;;;;;9.57;4.40;;;;;;;;;;5007516;28;20440;-79
2021/05/08 05:49:46;;;;;;;6.80;4.70;;;;;;;;;;5004247;28;20424;-78
2021/05/08 05:52:12;;;;;;;8.27;4.37;;;;;;;;;;5008234;28;20468;-77
2021/05/08 05:54:38;;;;;;;7.27;4.07;;;;;;;;;;4997746;28;20467;-76
2021/05/08 05:57:04;;;;;;;6.83;4.20;;;;;;;;;;5000937;28;20478;-76
2021/05/08 05:59:32;;;;;;;5.73;4.40;;;;;;;;;;5006039;28;20448;-78
2021/05/08 06:01:58;;;;;;;4.63;4.27;;;;;;;;;;5008272;28;20467;-75
2021/05/08 06:04:24;;;;;;;7.93;4.37;;;;;;;;;;5005018;28;21338;-77
2021/05/08 06:06:50;;;;;;;6.30;3.90;;;;;;;;;;4978164;28;20499;-77
2021/05/08 06:09:16;;;;;;;11.30;4.40;;;;;;;;;;5109523;23;20435;-78
2021/05/08 06:11:42;;;;;;;9.83;5.10;;;;;;;;;;5005978;28;20484;-76
2021/05/08 06:14:08;;;;;;;8.80;4.97;;;;;;;;;;4989372;28;20443;-76
2021/05/08 06:16:34;;;;;;;7.67;4.37;;;;;;;;;;4996361;28;20475;-76
2021/05/08 06:19:00;;;;;;;9.10;4.70;;;;;;;;;;4994115;28;20522;-78
2021/05/08 06:21:26;;;;;;;7.17;4.57;;;;;;;;;;4976707;28;20448;-75
2021/05/08 06:23:52;;;;;;;5.47;4.40;;;;;;;;;;4971977;28;20437;-77
2021/05/08 06:26:18;;;;;;;6.90;4.27;;;;;;;;;;4984778;28;20466;-76
2021/05/08 06:28:44;;;;;;;5.13;4.57;;;;;;;;;;5008033;28;20996;-76
2021/05/08 06:31:10;;;;;;;4.70;4.30;;;;;;;;;;4996557;28;20511;-76
2021/05/08 06:33:36;;;;;;;9.97;5.57;;;;;;;;;;4965769;28;20526;-77
2021/05/08 06:36:03;;;;;;;8.93;5.03;;;;;;;;;;4989331;28;20463;-77
2021/05/08 06:38:29;;;;;;;9.80;5.20;;;;;;;;;;4999064;28;20483;-79
2021/05/08 06:40:55;;;;;;;8.13;4.63;;;;;;;;;;5006852;28;20452;-79
2021/05/08 06:43:35;;;;;;;8.37;5.17;;;;;;;;;;5016208;28;20424;-82
2021/05/08 06:46:12;;;;;;;8.73;5.00;;;;;;;;;;5086925;23;20554;-76
2021/05/08 06:48:38;;;;;;;8.73;4.77;;;;;;;;;;4992107;28;20436;-76
2021/05/08 06:51:06;;;;;;;5.30;4.30;;;;;;;;;;4971865;28;20504;-77
2021/05/08 06:53:32;;;;;;;7.83;4.93;;;;;;;;;;4993701;28;20429;-76
2021/05/08 06:55:58;;;;;;;10.67;5.13;;;;;;;;;;4995037;28;20841;-76
2021/05/08 06:58:25;;;;;;;6.77;4.93;;;;;;;;;;4970312;28;21085;-76
2021/05/08 07:00:51;;;;;;;12.50;5.50;;;;;;;;;;4991431;28;20464;-76
2021/05/08 07:03:17;;;;;;;9.93;5.47;;;;;;;;;;4981703;28;20565;-76
2021/05/08 07:05:43;;;;;;;10.53;5.30;;;;;;;;;;4988623;28;20437;-76
2021/05/08 07:08:10;;;;;;;12.07;4.97;;;;;;;;;;4985052;28;20488;-76
2021/05/08 07:10:47;;;;;;;6.83;5.23;;;;;;;;;;4979872;28;20568;-76
2021/05/08 07:13:14;;;;;;;10.43;5.90;;;;;;;;;;4979603;28;20441;-75
2021/05/08 07:15:40;;;;;;;6.20;5.00;;;;;;;;;;4964018;28;20442;-75
2021/05/08 07:18:06;;;;;;;11.27;6.40;;;;;;;;;;4978729;28;20477;-77
2021/05/08 07:20:33;;;;;;;14.10;4.87;;;;;;;;;;4989771;28;20457;-75
2021/05/08 07:23:00;;;;;;;9.73;5.30;;;;;;;;;;4992845;28;20455;-76
2021/05/08 07:25:26;;;;;;;9.20;5.00;;;;;;;;;;4970699;28;20434;-76
2021/05/08 07:27:52;;;;;;;8.67;6.07;;;;;;;;;;4984040;28;20926;-77
2021/05/08 07:30:19;;;;;;;7.63;5.73;;;;;;;;;;4968933;28;20840;-75
2021/05/08 07:32:45;;;;;;;7.00;5.17;;;;;;;;;;4974177;28;20437;-76
2021/05/08 07:35:11;;;;;;;9.50;5.50;;;;;;;;;;4986294;28;20451;-75
2021/05/08 07:37:41;;;;;;;8.50;4.90;;;;;;;;;;4987264;28;20487;-77
2021/05/08 07:40:08;;;;;;;10.07;6.47;;;;;;;;;;4990120;28;20978;-76
2021/05/08 07:42:34;;;;;;;6.83;5.43;;;;;;;;;;4988410;28;20425;-77
2021/05/08 07:45:00;;;;;;;6.03;4.40;;;;;;;;;;4970865;28;20481;-78
2021/05/08 07:47:26;;;;;;;7.13;5.10;;;;;;;;;;4969642;28;20535;-78
2021/05/08 07:49:52;;;;;;;5.50;4.80;;;;;;;;;;4967279;28;20462;-77
2021/05/08 07:52:18;;;;;;;7.20;5.00;;;;;;;;;;4982570;28;20465;-77
2021/05/08 07:54:44;;;;;;;6.10;5.37;;;;;;;;;;4977450;28;20500;-77
2021/05/08 07:57:10;;;;;;;7.93;5.87;;;;;;;;;;4977750;28;20528;-77
2021/05/08 07:59:36;;;;;;;13.93;6.40;;;;;;;;;;4972945;28;20549;-77
2021/05/08 08:02:03;;;;;;;5.50;4.60;;;;;;;;;;4979254;28;20469;-78
2021/05/08 08:04:29;;;;;;;12.80;5.40;;;;;;;;;;4993810;28;20487;-77
2021/05/08 08:06:55;;;;;;;12.60;5.60;;;;;;;;;;4961804;28;20881;-76
2021/05/08 08:09:21;;;;;;;6.47;5.40;;;;;;;;;;4965372;28;20476;-77
2021/05/08 08:11:47;;;;;;;6.93;5.30;;;;;;;;;;4964231;28;20469;-77
2021/05/08 08:14:13;;;;;;;11.93;6.10;;;;;;;;;;4974173;28;20424;-78
2021/05/08 08:16:39;;;;;;;6.13;5.20;;;;;;;;;;4993118;28;20517;-77
2021/05/08 08:19:05;;;;;;;9.93;5.60;;;;;;;;;;4972693;28;20457;-77
2021/05/08 08:21:31;;;;;;;10.63;5.13;;;;;;;;;;4981266;28;20437;-77
2021/05/08 08:23:57;;;;;;;7.13;5.10;;;;;;;;;;4970102;28;20438;-78
2021/05/08 08:26:23;;;;;;;7.83;4.90;;;;;;;;;;4978192;28;20492;-77
2021/05/08 08:28:49;;;;;;;7.00;4.67;;;;;;;;;;4983518;28;20425;-77
2021/05/08 08:31:16;;;;;;;10.57;5.20;;;;;;;;;;4966895;28;20877;-77
2021/05/08 08:33:42;;;;;;;7.63;4.90;;;;;;;;;;4989271;28;20523;-77
2021/05/08 08:36:08;;;;;;;5.23;4.37;;;;;;;;;;4965412;28;20444;-77
2021/05/08 08:38:34;;;;;;;7.00;4.67;;;;;;;;;;4979848;28;20426;-76
2021/05/08 08:41:00;;;;;;;10.77;5.17;;;;;;;;;;4964530;28;20545;-77
2021/05/08 08:43:27;;;;;;;7.03;4.57;;;;;;;;;;4984454;28;20432;-76
2021/05/08 08:45:53;;;;;;;9.50;4.63;;;;;;;;;;4965399;28;20492;-76
2021/05/08 08:48:20;;;;;;;10.40;4.77;;;;;;;;;;4990030;28;20440;-77
2021/05/08 08:50:48;;;;;;;10.63;4.90;;;;;;;;;;4982414;28;21065;-77
2021/05/08 08:53:15;;;;;;;5.97;4.77;;;;;;;;;;4966631;28;20418;-77
2021/05/08 08:55:42;;;;;;;6.20;4.50;;;;;;;;;;4964487;28;20947;-78
2021/05/08 08:58:09;;;;;;;5.30;4.73;;;;;;;;;;4985125;28;20438;-77
2021/05/08 09:00:35;;;;;;;7.83;5.47;;;;;;;;;;4985831;28;20505;-76
2021/05/08 09:03:03;;;;;;;5.23;4.73;;;;;;;;;;4991621;28;20547;-77
2021/05/08 09:05:29;;;;;;;6.27;4.60;;;;;;;;;;4990494;28;20417;-76
2021/05/08 09:08:00;;;;;;;7.97;4.67;;;;;;;;;;4969977;28;20444;-77
2021/05/08 09:10:26;;;;;;;4.90;4.40;;;;;;;;;;4975298;28;20464;-76
2021/05/08 09:12:53;;;;;;;8.63;5.37;;;;;;;;;;4979147;28;20917;-76
2021/05/08 09:15:29;;;;;;;5.73;4.10;;;;;;;;;;4985975;28;20499;-76
2021/05/08 09:17:55;;;;;;;6.00;3.77;;;;;;;;;;4990874;28;20410;-76
2021/05/08 09:20:21;;;;;;;6.97;3.43;;;;;;;;;;4986940;28;20433;-76
2021/05/08 09:22:47;;;;;;;5.63;4.50;;;;;;;;;;5011544;28;20443;-76
2021/05/08 09:25:15;;;;;;;5.80;4.07;;;;;;;;;;4998958;28;20841;-76
2021/05/08 09:27:43;;;;;;;6.03;4.10;;;;;;;;;;5016267;28;20404;-76
2021/05/08 09:30:14;;;;;;;5.93;3.73;;;;;;;;;;5016214;28;20432;-75
2021/05/08 09:32:44;;;;;;;4.50;4.00;;;;;;;;;;5015780;28;21021;-76
2021/05/08 09:35:12;;;;;;;6.13;4.20;;;;;;;;;;4995777;28;20428;-76
2021/05/08 09:37:39;;;;;;;11.63;4.57;;;;;;;;;;4979844;28;20793;-76
2021/05/08 09:40:34;;;;;;;7.87;4.50;;;;;;;;;;4984177;28;21129;-76
2021/05/08 09:43:00;;;;;;;6.90;5.07;;;;;;;;;;4983255;28;20429;-74
2021/05/08 09:45:27;;;;;;;6.23;4.00;;;;;;;;;;4995685;28;20442;-74
2021/05/08 09:47:54;;;;;;;4.77;4.23;;;;;;;;;;4981490;28;20428;-74
2021/05/08 09:50:21;;;;;;;7.37;4.53;;;;;;;;;;4976270;28;20434;-75
2021/05/08 09:52:47;;;;;;;6.60;4.67;;;;;;;;;;4976303;28;20453;-74
2021/05/08 09:55:14;;;;;;;11.00;4.63;;;;;;;;;;4978116;28;20943;-74
2021/05/08 09:57:40;;;;;;;6.80;4.90;;;;;;;;;;4997109;28;20463;-76
2021/05/08 10:00:26;;;;;;;4.60;3.80;;;;;;;;;;5015454;28;20428;-74
2021/05/08 10:03:19;;;;;;;6.87;4.67;;;;;;;;;;5015872;28;20855;-74
2021/05/08 10:05:52;;;;;;;5.60;4.43;;;;;;;;;;4982468;28;20802;-74
2021/05/08 10:08:18;;;;;;;18.73;5.13;;;;;;;;;;4995238;28;20408;-74
2021/05/08 10:10:44;;;;;;;6.23;4.33;;;;;;;;;;4996397;28;20938;-74
2021/05/08 10:13:12;;;;;;;7.73;4.70;;;;;;;;;;4998932;28;20424;-74
2021/05/08 10:15:40;;;;;;;6.07;4.80;;;;;;;;;;4995654;28;20462;-74
2021/05/08 10:18:08;;;;;;;5.37;4.00;;;;;;;;;;4996243;28;20420;-74
2021/05/08 10:20:35;;;;;;;6.77;4.17;;;;;;;;;;4978109;28;20903;-74
2021/05/08 10:23:11;;;;;;;7.00;4.80;;;;;;;;;;4989293;28;20421;-75
2021/05/08 10:25:38;;;;;;;6.10;4.23;;;;;;;;;;4974820;28;20429;-75
2021/05/08 10:28:05;;;;;;;8.07;5.87;;;;;;;;;;4985144;28;20915;-74
2021/05/08 10:30:38;;;;;;;9.80;4.60;;;;;;;;;;4985167;28;20437;-74
2021/05/08 10:33:08;;;;;;;6.27;4.47;;;;;;;;;;4995050;28;20412;-74
2021/05/08 10:35:37;;;;;;;6.97;4.80;;;;;;;;;;4977412;28;21066;-75
2021/05/08 10:38:34;;;;;;;8.90;5.50;;;;;;;;;;4977782;28;20421;-75
2021/05/08 10:41:05;;;;;;;10.00;4.80;;;;;;;;;;4978023;28;20791;-74
2021/05/08 10:43:44;;;;;;;7.53;5.00;;;;;;;;;;4977678;28;20503;-74
2021/05/08 10:46:11;;;;;;;8.17;5.57;;;;;;;;;;4977779;28;20708;-75
2021/05/08 10:48:37;;;;;;;7.47;4.63;;;;;;;;;;4996175;28;20432;-76
2021/05/08 10:51:03;;;;;;;9.50;5.23;;;;;;;;;;5014541;28;20452;-75
2021/05/08 10:53:37;;;;;;;8.00;4.43;;;;;;;;;;5002534;28;20897;-75
2021/05/08 10:56:03;;;;;;;6.87;4.40;;;;;;;;;;4988038;28;20429;-75
2021/05/08 10:58:30;;;;;;;5.67;4.30;;;;;;;;;;4981273;28;21001;-75
2021/05/08 11:00:56;;;;;;;8.80;4.10;;;;;;;;;;4977605;28;20448;-75
2021/05/08 11:03:27;;;;;;;6.87;4.90;;;;;;;;;;4993797;28;20417;-76
2021/05/08 11:06:25;;;;;;;7.60;4.87;;;;;;;;;;4983721;28;20997;-75
2021/05/08 11:08:51;;;;;;;7.47;4.80;;;;;;;;;;4941850;28;20429;-74
2021/05/08 11:11:27;;;;;;;7.97;5.00;;;;;;;;;;4994611;28;20490;-74
2021/05/08 11:14:00;;;;;;;9.80;5.20;;;;;;;;;;4977349;28;20428;-74
2021/05/08 11:16:27;;;;;;;6.63;4.53;;;;;;;;;;4987032;28;20473;-77
2021/05/08 11:18:54;;;;;;;12.53;5.10;;;;;;;;;;4979372;28;20504;-74
2021/05/08 11:21:21;;;;;;;10.80;5.87;;;;;;;;;;4974847;28;20524;-75
2021/05/08 11:23:50;;;;;;;9.27;5.27;;;;;;;;;;4987611;28;20433;-75
2021/05/08 11:26:40;;;;;;;9.07;4.80;;;;;;;;;;4981610;28;20515;-74
2021/05/08 11:29:06;;;;;;;9.87;5.53;;;;;;;;;;4978011;28;20449;-75
2021/05/08 11:31:32;;;;;;;9.07;6.13;;;;;;;;;;4980540;28;20476;-74
2021/05/08 11:34:09;;;;;;;8.67;5.07;;;;;;;;;;4975201;28;20517;-75
2021/05/08 11:36:52;;;;;;;8.18;6.15;;;;;;;;;;4987255;28;20428;-75
2021/05/08 11:39:20;;;;;;;8.80;5.70;;;;;;;;;;4990802;28;20212;-75
2021/05/08 11:41:46;;;;;;;8.03;5.67;;;;;;;;;;4977326;28;20444;-76
2021/05/08 11:44:20;;;;;;;11.00;5.83;;;;;;;;;;4987417;28;20437;-76
2021/05/08 11:46:53;;;;;;;10.07;5.17;;;;;;;;;;4984472;28;20442;-75
2021/05/08 11:49:25;;;;;;;8.27;5.60;;;;;;;;;;4987020;28;20460;-75
2021/05/08 11:51:51;;;;;;;12.07;5.73;;;;;;;;;;4968695;28;20583;-75
2021/05/08 11:54:17;;;;;;;8.43;5.40;;;;;;;;;;4959872;28;20437;-73
2021/05/08 11:56:43;;;;;;;14.23;6.80;;;;;;;;;;4991142;28;20498;-73
2021/05/08 11:59:09;;;;;;;8.77;5.90;;;;;;;;;;4966511;28;20998;-74
2021/05/08 12:01:35;;;;;;;12.13;6.40;;;;;;;;;;4980019;28;20432;-74
2021/05/08 12:04:03;;;;;;;10.60;5.90;;;;;;;;;;4971236;28;21039;-75
2021/05/08 12:06:29;;;;;;;12.47;6.57;;;;;;;;;;4981387;28;20535;-73
2021/05/08 12:08:56;;;;;;;11.33;5.60;;;;;;;;;;4971525;28;20442;-74
2021/05/08 12:11:22;;;;;;;15.10;6.47;;;;;;;;;;4974423;28;20523;-73
2021/05/08 12:13:48;;;;;;;10.83;6.30;;;;;;;;;;4970376;28;20865;-74
2021/05/08 12:16:17;;;;;;;11.13;6.00;;;;;;;;;;4972415;28;20433;-74
2021/05/08 12:18:43;;;;;;;12.57;7.73;;;;;;;;;;4980698;28;20425;-75
2021/05/08 12:21:13;;;;;;;11.80;6.80;;;;;;;;;;4986671;28;20536;-73
2021/05/08 12:23:40;;;;;;;11.10;6.53;;;;;;;;;;4978077;28;20441;-73
2021/05/08 12:26:06;;;;;;;11.50;6.60;;;;;;;;;;4977269;28;20471;-74
2021/05/08 12:28:33;;;;;;;20.47;7.27;;;;;;;;;;4964370;28;20445;-74
2021/05/08 12:30:59;;;;;;;11.20;7.10;;;;;;;;;;4977241;28;20474;-75
2021/05/08 12:33:26;;;;;;;14.80;7.10;;;;;;;;;;4982754;28;20857;-75
2021/05/08 12:35:53;;;;;;;10.47;6.73;;;;;;;;;;4978797;28;20473;-75
2021/05/08 12:38:19;;;;;;;10.53;6.83;;;;;;;;;;4969693;28;20840;-75
2021/05/08 12:40:45;;;;;;;14.07;7.30;;;;;;;;;;4980957;28;20512;-75
2021/05/08 12:43:11;;;;;;;11.00;7.33;;;;;;;;;;4980560;28;20519;-75
2021/05/08 12:45:56;;;;;;;12.60;7.13;;;;;;;;;;4972787;28;20466;-75
2021/05/08 12:48:26;;;;;;;14.03;7.73;;;;;;;;;;4972326;28;20444;-75
2021/05/08 12:50:52;;;;;;;14.60;8.30;;;;;;;;;;4987644;28;20453;-75
2021/05/08 12:53:20;;;;;;;12.03;7.40;;;;;;;;;;4987649;28;20439;-75
2021/05/08 12:55:59;;;;;;;21.73;7.07;;;;;;;;;;4975931;28;20433;-74
2021/05/08 12:58:33;;;;;;;14.47;7.20;;;;;;;;;;4979452;28;20820;-74
2021/05/08 13:01:00;;;;;;;7.90;5.80;;;;;;;;;;4982257;28;20986;-75
2021/05/08 13:06:21;;;;;;;6.37;4.80;;;;;;;;;;4976119;28;20531;-73
2021/05/08 13:08:52;;;;;;;8.07;5.47;;;;;;;;;;4966888;28;22056;-78
2021/05/08 13:11:37;;;;;;;8.30;5.77;;;;;;;;;;4977139;28;20472;-75
2021/05/08 13:14:15;;;;;;;5.97;4.53;;;;;;;;;;4985493;28;20528;-72
2021/05/08 13:16:41;;;;;;;6.73;4.70;;;;;;;;;;4977553;28;20443;-73
2021/05/08 13:19:07;;;;;;;6.40;4.60;;;;;;;;;;4969318;28;20449;-74
2021/05/08 13:21:33;;;;;;;6.20;4.20;;;;;;;;;;4973288;28;20524;-78
2021/05/08 13:23:59;;;;;;;6.20;4.90;;;;;;;;;;4970052;28;20437;-74
2021/05/08 13:26:25;;;;;;;8.00;4.77;;;;;;;;;;4982338;28;20449;-74
2021/05/08 13:28:51;;;;;;;5.23;4.43;;;;;;;;;;4976987;28;20935;-73
2021/05/08 13:31:17;;;;;;;10.90;5.40;;;;;;;;;;4982160;28;20481;-74
2021/05/08 13:33:43;;;;;;;7.23;5.23;;;;;;;;;;4981853;28;20442;-72
2021/05/08 13:36:09;;;;;;;6.20;5.10;;;;;;;;;;4979753;28;20441;-73
2021/05/08 13:38:35;;;;;;;7.10;5.20;;;;;;;;;;4971679;28;20459;-72
2021/05/08 13:41:01;;;;;;;9.57;5.83;;;;;;;;;;4987535;28;20971;-73
2021/05/08 13:43:28;;;;;;;6.70;5.00;;;;;;;;;;4978948;28;20452;-76
2021/05/08 13:45:54;;;;;;;6.27;5.00;;;;;;;;;;4984015;28;21044;-74
2021/05/08 13:48:20;;;;;;;10.83;6.10;;;;;;;;;;4970946;28;20537;-75
2021/05/08 13:50:47;;;;;;;6.40;5.40;;;;;;;;;;4988824;28;20617;-73
2021/05/08 13:53:14;;;;;;;13.80;5.90;;;;;;;;;;4964977;28;20448;-75
2021/05/08 13:55:40;;;;;;;9.47;6.90;;;;;;;;;;4984440;28;20444;-75
2021/05/08 13:58:06;;;;;;;6.33;5.63;;;;;;;;;;4966466;28;20495;-74
2021/05/08 14:00:32;;;;;;;11.50;6.23;;;;;;;;;;4982440;28;20483;-74
2021/05/08 14:02:58;;;;;;;7.60;6.33;;;;;;;;;;4984558;28;20441;-74
2021/05/08 14:05:24;;;;;;;7.77;6.30;;;;;;;;;;4980587;28;20813;-74
2021/05/08 14:07:50;;;;;;;10.60;7.83;;;;;;;;;;4981431;28;20496;-74
2021/05/08 14:10:16;;;;;;;9.10;6.73;;;;;;;;;;4961238;28;20993;-74
2021/05/08 14:12:42;;;;;;;14.47;7.83;;;;;;;;;;4989465;28;20473;-74
2021/05/08 14:15:09;;;;;;;8.17;6.97;;;;;;;;;;4988207;28;20441;-74
2021/05/08 14:17:35;;;;;;;8.53;6.80;;;;;;;;;;4980736;28;21003;-73
2021/05/08 14:20:01;;;;;;;7.50;6.70;;;;;;;;;;4979851;28;20555;-74
2021/05/08 14:22:27;;;;;;;9.47;7.07;;;;;;;;;;4981499;28;20445;-74
2021/05/08 14:24:53;;;;;;;9.70;7.10;;;;;;;;;;4980226;28;20536;-73
2021/05/08 14:27:19;;;;;;;9.10;6.70;;;;;;;;;;4980602;28;20534;-74
2021/05/08 14:29:45;;;;;;;8.40;5.93;;;;;;;;;;4980815;28;20909;-74
2021/05/08 14:32:11;;;;;;;7.23;5.97;;;;;;;;;;4969039;28;20464;-73
2021/05/08 14:34:37;;;;;;;11.23;6.83;;;;;;;;;;4969000;28;20528;-75
2021/05/08 14:37:04;;;;;;;7.17;6.40;;;;;;;;;;4971825;28;20444;-74
2021/05/08 14:39:30;;;;;;;9.27;6.57;;;;;;;;;;4984598;28;20504;-75
2021/05/08 14:41:56;;;;;;;9.17;6.47;;;;;;;;;;4977096;28;20452;-74